sensor_id;sensor_type;location;lat;lon;timestamp;pressure;altitude;pressure_sealevel;temperature;humidity
53270;BME280;39159;45.634;9.420;2022-10-31T00:01:30;99533.59;;;15.36;80.91
53270;BME280;39159;45.634;9.420;2022-10-31T00:03:57;99531.34;;;15.29;81.19
53270;BME280;39159;45.634;9.420;2022-10-31T00:06:23;99536.03;;;15.28;81.39
53270;BME280;39159;45.634;9.420;2022-10-31T00:08:54;99536.72;;;15.25;81.51
53270;BME280;39159;45.634;9.420;2022-10-31T00:11:20;99528.78;;;15.24;81.63
53270;BME280;39159;45.634;9.420;2022-10-31T00:13:45;99534.75;;;15.17;82.41
53270;BME280;39159;45.634;9.420;2022-10-31T00:16:22;99525.84;;;15.11;82.51
53270;BME280;39159;45.634;9.420;2022-10-31T00:18:49;99524.91;;;15.07;82.70
53270;BME280;39159;45.634;9.420;2022-10-31T00:21:15;99527.81;;;15.02;82.95
53270;BME280;39159;45.634;9.420;2022-10-31T00:23:40;99530.41;;;14.99;83.19
53270;BME280;39159;45.634;9.420;2022-10-31T00:26:05;99527.50;;;14.95;83.25
53270;BME280;39159;45.634;9.420;2022-10-31T00:28:32;99532.00;;;14.91;83.50
53270;BME280;39159;45.634;9.420;2022-10-31T00:30:59;99531.88;;;14.87;83.64
53270;BME280;39159;45.634;9.420;2022-10-31T00:33:25;99526.19;;;14.84;83.53
53270;BME280;39159;45.634;9.420;2022-10-31T00:35:50;99530.06;;;14.83;83.89
53270;BME280;39159;45.634;9.420;2022-10-31T00:38:16;99521.00;;;14.82;83.27
53270;BME280;39159;45.634;9.420;2022-10-31T00:40:42;99526.50;;;14.82;83.25
53270;BME280;39159;45.634;9.420;2022-10-31T00:43:08;99523.25;;;14.80;83.17
53270;BME280;39159;45.634;9.420;2022-10-31T00:45:33;99530.06;;;14.83;83.19
53270;BME280;39159;45.634;9.420;2022-10-31T00:47:59;99526.34;;;14.79;83.40
53270;BME280;39159;45.634;9.420;2022-10-31T00:50:24;99523.13;;;14.77;83.63
53270;BME280;39159;45.634;9.420;2022-10-31T00:52:49;99523.75;;;14.74;83.94
53270;BME280;39159;45.634;9.420;2022-10-31T00:55:15;99526.34;;;14.70;83.98
53270;BME280;39159;45.634;9.420;2022-10-31T00:57:40;99516.81;;;14.67;84.21
53270;BME280;39159;45.634;9.420;2022-10-31T01:00:06;99520.19;;;14.64;84.33
53270;BME280;39159;45.634;9.420;2022-10-31T01:02:31;99514.53;;;14.61;84.48
53270;BME280;39159;45.634;9.420;2022-10-31T01:04:57;99516.78;;;14.59;84.43
53270;BME280;39159;45.634;9.420;2022-10-31T01:07:22;99521.81;;;14.57;84.41
53270;BME280;39159;45.634;9.420;2022-10-31T01:09:48;99513.88;;;14.55;84.29
53270;BME280;39159;45.634;9.420;2022-10-31T01:12:13;99515.81;;;14.55;84.15
53270;BME280;39159;45.634;9.420;2022-10-31T01:14:43;99515.59;;;14.51;84.33
53270;BME280;39159;45.634;9.420;2022-10-31T01:17:08;99514.50;;;14.52;84.28
53270;BME280;39159;45.634;9.420;2022-10-31T01:19:33;99518.84;;;14.53;83.85
53270;BME280;39159;45.634;9.420;2022-10-31T01:21:59;99516.09;;;14.53;83.92
53270;BME280;39159;45.634;9.420;2022-10-31T01:24:24;99511.63;;;14.57;83.25
53270;BME280;39159;45.634;9.420;2022-10-31T01:26:50;99513.22;;;14.58;83.04
53270;BME280;39159;45.634;9.420;2022-10-31T01:29:15;99520.03;;;14.61;82.09
53270;BME280;39159;45.634;9.420;2022-10-31T01:31:40;99522.28;;;14.76;80.06
53270;BME280;39159;45.634;9.420;2022-10-31T01:34:06;99511.47;;;14.88;79.31
53270;BME280;39159;45.634;9.420;2022-10-31T01:36:37;99506.00;;;14.97;79.03
53270;BME280;39159;45.634;9.420;2022-10-31T01:39:09;99514.22;;;15.06;78.91
53270;BME280;39159;45.634;9.420;2022-10-31T01:41:38;99514.22;;;15.06;79.66
53270;BME280;39159;45.634;9.420;2022-10-31T01:47:05;99517.63;;;14.94;80.99
53270;BME280;39159;45.634;9.420;2022-10-31T01:54:41;99502.75;;;14.78;82.99
53270;BME280;39159;45.634;9.420;2022-10-31T01:57:11;99509.84;;;14.70;83.56
53270;BME280;39159;45.634;9.420;2022-10-31T01:59:42;99509.50;;;14.63;84.02
53270;BME280;39159;45.634;9.420;2022-10-31T02:02:08;99507.22;;;14.56;84.05
53270;BME280;39159;45.634;9.420;2022-10-31T02:04:34;99509.00;;;14.52;84.14
53270;BME280;39159;45.634;9.420;2022-10-31T02:07:10;99501.56;;;14.52;83.98
53270;BME280;39159;45.634;9.420;2022-10-31T02:09:37;99502.69;;;14.51;83.80
53270;BME280;39159;45.634;9.420;2022-10-31T02:12:05;99499.13;;;14.51;83.85
53270;BME280;39159;45.634;9.420;2022-10-31T02:14:31;99497.53;;;14.50;84.03
53270;BME280;39159;45.634;9.420;2022-10-31T02:16:57;99492.81;;;14.50;83.94
53270;BME280;39159;45.634;9.420;2022-10-31T02:20:00;99496.38;;;14.51;83.28
53270;BME280;39159;45.634;9.420;2022-10-31T02:33:45;99487.66;;;14.49;84.51
53270;BME280;39159;45.634;9.420;2022-10-31T02:36:23;99487.16;;;14.47;84.51
53270;BME280;39159;45.634;9.420;2022-10-31T02:39:14;99483.47;;;14.43;84.94
53270;BME280;39159;45.634;9.420;2022-10-31T02:41:52;99483.78;;;14.41;84.97
53270;BME280;39159;45.634;9.420;2022-10-31T02:49:45;99487.50;;;14.45;83.95
53270;BME280;39159;45.634;9.420;2022-10-31T02:52:34;99486.66;;;14.45;83.79
53270;BME280;39159;45.634;9.420;2022-10-31T03:00:24;99486.53;;;14.50;82.50
53270;BME280;39159;45.634;9.420;2022-10-31T03:05:55;99484.78;;;14.54;81.86
53270;BME280;39159;45.634;9.420;2022-10-31T03:08:50;99481.84;;;14.50;81.99
53270;BME280;39159;45.634;9.420;2022-10-31T03:11:22;99485.41;;;14.51;81.54
53270;BME280;39159;45.634;9.420;2022-10-31T03:13:54;99481.03;;;14.50;82.05
53270;BME280;39159;45.634;9.420;2022-10-31T03:21:29;99479.09;;;14.42;82.16
53270;BME280;39159;45.634;9.420;2022-10-31T03:23:59;99478.09;;;14.38;82.37
53270;BME280;39159;45.634;9.420;2022-10-31T03:26:25;99476.81;;;14.35;82.41
53270;BME280;39159;45.634;9.420;2022-10-31T03:28:59;99476.63;;;14.31;83.04
53270;BME280;39159;45.634;9.420;2022-10-31T03:31:28;99475.50;;;14.24;83.60
53270;BME280;39159;45.634;9.420;2022-10-31T03:33:56;99475.66;;;14.19;84.62
53270;BME280;39159;45.634;9.420;2022-10-31T03:36:24;99480.47;;;14.13;84.55
53270;BME280;39159;45.634;9.420;2022-10-31T03:38:51;99482.88;;;14.06;85.38
53270;BME280;39159;45.634;9.420;2022-10-31T03:41:20;99480.09;;;13.97;86.45
53270;BME280;39159;45.634;9.420;2022-10-31T03:43:57;99474.28;;;13.90;86.70
53270;BME280;39159;45.634;9.420;2022-10-31T03:46:24;99474.88;;;13.87;87.08
53270;BME280;39159;45.634;9.420;2022-10-31T03:48:50;99479.56;;;13.86;86.66
53270;BME280;39159;45.634;9.420;2022-10-31T03:51:23;99480.38;;;13.87;86.30
53270;BME280;39159;45.634;9.420;2022-10-31T03:53:55;99481.69;;;13.89;86.04
53270;BME280;39159;45.634;9.420;2022-10-31T03:56:42;99474.56;;;13.88;86.42
53270;BME280;39159;45.634;9.420;2022-10-31T03:59:35;99482.31;;;13.86;86.24
53270;BME280;39159;45.634;9.420;2022-10-31T04:02:12;99482.00;;;13.88;86.47
53270;BME280;39159;45.634;9.420;2022-10-31T04:04:38;99497.03;;;13.91;86.41
53270;BME280;39159;45.634;9.420;2022-10-31T04:07:05;99490.41;;;13.92;86.40
53270;BME280;39159;45.634;9.420;2022-10-31T04:09:35;99496.22;;;13.90;86.29
53270;BME280;39159;45.634;9.420;2022-10-31T04:12:03;99493.47;;;13.90;86.46
53270;BME280;39159;45.634;9.420;2022-10-31T04:14:32;99494.28;;;13.91;86.19
53270;BME280;39159;45.634;9.420;2022-10-31T04:17:00;99500.56;;;13.91;86.18
53270;BME280;39159;45.634;9.420;2022-10-31T04:19:26;99497.03;;;13.91;85.90
53270;BME280;39159;45.634;9.420;2022-10-31T04:21:51;99499.75;;;13.91;86.04
53270;BME280;39159;45.634;9.420;2022-10-31T04:24:17;99497.66;;;13.87;86.22
53270;BME280;39159;45.634;9.420;2022-10-31T04:26:42;99503.16;;;13.87;86.31
53270;BME280;39159;45.634;9.420;2022-10-31T04:29:07;99491.34;;;13.87;86.63
53270;BME280;39159;45.634;9.420;2022-10-31T04:31:33;99491.19;;;13.83;86.91
53270;BME280;39159;45.634;9.420;2022-10-31T04:33:58;99492.63;;;13.81;86.90
53270;BME280;39159;45.634;9.420;2022-10-31T04:36:24;99488.09;;;13.76;86.96
53270;BME280;39159;45.634;9.420;2022-10-31T04:38:49;99488.72;;;13.73;87.39
53270;BME280;39159;45.634;9.420;2022-10-31T04:41:14;99490.97;;;13.71;87.41
53270;BME280;39159;45.634;9.420;2022-10-31T04:43:40;99485.63;;;13.66;87.83
53270;BME280;39159;45.634;9.420;2022-10-31T04:46:05;99483.50;;;13.63;87.57
53270;BME280;39159;45.634;9.420;2022-10-31T04:48:31;99479.94;;;13.62;87.89
53270;BME280;39159;45.634;9.420;2022-10-31T04:51:00;99479.44;;;13.60;87.44
53270;BME280;39159;45.634;9.420;2022-10-31T04:53:25;99486.88;;;13.60;87.74
53270;BME280;39159;45.634;9.420;2022-10-31T04:55:51;99486.38;;;13.58;87.62
53270;BME280;39159;45.634;9.420;2022-10-31T04:58:16;99477.34;;;13.57;87.47
53270;BME280;39159;45.634;9.420;2022-10-31T05:00:41;99484.78;;;13.57;87.58
53270;BME280;39159;45.634;9.420;2022-10-31T05:03:07;99485.38;;;13.54;88.15
53270;BME280;39159;45.634;9.420;2022-10-31T05:05:32;99488.13;;;13.54;87.75
53270;BME280;39159;45.634;9.420;2022-10-31T05:07:58;99482.63;;;13.54;87.82
53270;BME280;39159;45.634;9.420;2022-10-31T05:10:25;99490.38;;;13.52;87.38
53270;BME280;39159;45.634;9.420;2022-10-31T05:12:54;99490.38;;;13.52;87.64
53270;BME280;39159;45.634;9.420;2022-10-31T05:15:20;99486.31;;;13.49;87.93
53270;BME280;39159;45.634;9.420;2022-10-31T05:17:46;99485.03;;;13.46;87.93
53270;BME280;39159;45.634;9.420;2022-10-31T05:20:13;99486.16;;;13.45;88.09
53270;BME280;39159;45.634;9.420;2022-10-31T05:22:49;99485.66;;;13.43;88.72
53270;BME280;39159;45.634;9.420;2022-10-31T05:25:16;99491.75;;;13.40;88.53
53270;BME280;39159;45.634;9.420;2022-10-31T05:27:43;99483.88;;;13.39;88.58
53270;BME280;39159;45.634;9.420;2022-10-31T05:30:11;99489.66;;;13.37;88.54
53270;BME280;39159;45.634;9.420;2022-10-31T05:32:41;99493.19;;;13.38;88.75
53270;BME280;39159;45.634;9.420;2022-10-31T05:35:08;99486.09;;;13.37;88.11
53270;BME280;39159;45.634;9.420;2022-10-31T05:37:37;99492.41;;;13.37;88.49
53270;BME280;39159;45.634;9.420;2022-10-31T05:40:04;99483.66;;;13.35;88.67
53270;BME280;39159;45.634;9.420;2022-10-31T05:42:30;99486.91;;;13.37;88.34
53270;BME280;39159;45.634;9.420;2022-10-31T05:44:55;99492.69;;;13.36;88.69
53270;BME280;39159;45.634;9.420;2022-10-31T05:47:21;99489.94;;;13.36;88.47
53270;BME280;39159;45.634;9.420;2022-10-31T05:49:46;99487.53;;;13.34;88.69
53270;BME280;39159;45.634;9.420;2022-10-31T05:52:11;99488.97;;;13.32;88.90
53270;BME280;39159;45.634;9.420;2022-10-31T05:54:37;99488.16;;;13.31;89.00
53270;BME280;39159;45.634;9.420;2022-10-31T05:57:02;99497.50;;;13.30;89.08
53270;BME280;39159;45.634;9.420;2022-10-31T05:59:28;99490.41;;;13.29;89.41
53270;BME280;39159;45.634;9.420;2022-10-31T06:01:53;99493.44;;;13.27;89.55
53270;BME280;39159;45.634;9.420;2022-10-31T06:04:19;99492.09;;;13.25;89.66
53270;BME280;39159;45.634;9.420;2022-10-31T06:06:44;99496.78;;;13.24;89.91
53270;BME280;39159;45.634;9.420;2022-10-31T06:09:09;99498.41;;;13.25;89.15
53270;BME280;39159;45.634;9.420;2022-10-31T06:11:35;99499.22;;;13.26;89.14
53270;BME280;39159;45.634;9.420;2022-10-31T06:14:00;99505.75;;;13.30;88.69
53270;BME280;39159;45.634;9.420;2022-10-31T06:16:26;99494.94;;;13.34;88.33
53270;BME280;39159;45.634;9.420;2022-10-31T06:18:51;99493.69;;;13.40;91.02
53270;BME280;39159;45.634;9.420;2022-10-31T06:21:16;99500.38;;;13.47;89.52
53270;BME280;39159;45.634;9.420;2022-10-31T06:23:42;99501.22;;;13.57;90.35
53270;BME280;39159;45.634;9.420;2022-10-31T06:26:07;99500.94;;;13.67;90.30
53270;BME280;39159;45.634;9.420;2022-10-31T06:28:32;99506.81;;;13.74;88.07
53270;BME280;39159;45.634;9.420;2022-10-31T06:30:58;99509.22;;;13.76;86.69
53270;BME280;39159;45.634;9.420;2022-10-31T06:33:24;99501.66;;;13.81;85.97
53270;BME280;39159;45.634;9.420;2022-10-31T06:35:49;99507.16;;;13.81;85.15
53270;BME280;39159;45.634;9.420;2022-10-31T06:38:14;99501.81;;;13.85;85.77
53270;BME280;39159;45.634;9.420;2022-10-31T06:40:40;99512.50;;;13.86;84.51
53270;BME280;39159;45.634;9.420;2022-10-31T06:43:05;99502.50;;;13.91;85.02
53270;BME280;39159;45.634;9.420;2022-10-31T06:45:30;99515.59;;;13.94;84.62
53270;BME280;39159;45.634;9.420;2022-10-31T06:47:56;99519.31;;;13.98;84.93
53270;BME280;39159;45.634;9.420;2022-10-31T06:50:22;99524.81;;;13.98;84.35
53270;BME280;39159;45.634;9.420;2022-10-31T06:52:55;99523.84;;;14.02;84.11
53270;BME280;39159;45.634;9.420;2022-10-31T06:55:21;99516.44;;;14.03;84.36
53270;BME280;39159;45.634;9.420;2022-10-31T06:57:52;99531.63;;;14.09;84.72
53270;BME280;39159;45.634;9.420;2022-10-31T07:00:18;99530.81;;;14.08;85.19
53270;BME280;39159;45.634;9.420;2022-10-31T07:02:59;99527.78;;;14.10;85.80
53270;BME280;39159;45.634;9.420;2022-10-31T07:05:26;99531.63;;;14.09;86.54
53270;BME280;39159;45.634;9.420;2022-10-31T07:07:56;99535.03;;;14.06;86.66
53270;BME280;39159;45.634;9.420;2022-10-31T07:10:23;99536.00;;;14.10;87.09
53270;BME280;39159;45.634;9.420;2022-10-31T07:12:57;99536.66;;;14.16;87.16
53270;BME280;39159;45.634;9.420;2022-10-31T07:15:24;99541.88;;;14.26;86.43
53270;BME280;39159;45.634;9.420;2022-10-31T07:17:49;99541.41;;;14.33;86.63
53270;BME280;39159;45.634;9.420;2022-10-31T07:20:15;99544.50;;;14.40;86.06
53270;BME280;39159;45.634;9.420;2022-10-31T07:22:40;99546.13;;;14.49;85.95
53270;BME280;39159;45.634;9.420;2022-10-31T07:25:06;99549.41;;;14.60;86.09
53270;BME280;39159;45.634;9.420;2022-10-31T07:27:38;99550.09;;;14.75;85.54
53270;BME280;39159;45.634;9.420;2022-10-31T07:30:05;99553.19;;;14.99;84.96
53270;BME280;39159;45.634;9.420;2022-10-31T07:32:42;99559.81;;;15.42;82.46
53270;BME280;39159;45.634;9.420;2022-10-31T07:35:10;99562.19;;;15.78;81.64
53270;BME280;39159;45.634;9.420;2022-10-31T07:37:36;99560.63;;;16.15;80.54
53270;BME280;39159;45.634;9.420;2022-10-31T07:40:03;99569.53;;;16.51;79.96
53270;BME280;39159;45.634;9.420;2022-10-31T07:42:28;99573.94;;;16.82;79.08
53270;BME280;39159;45.634;9.420;2022-10-31T07:44:53;99574.00;;;17.15;78.15
53270;BME280;39159;45.634;9.420;2022-10-31T07:47:19;99570.56;;;17.39;75.21
53270;BME280;39159;45.634;9.420;2022-10-31T07:49:44;99572.34;;;17.56;73.86
53270;BME280;39159;45.634;9.420;2022-10-31T07:52:10;99573.44;;;17.76;72.86
53270;BME280;39159;45.634;9.420;2022-10-31T07:54:35;99575.63;;;17.70;71.90
53270;BME280;39159;45.634;9.420;2022-10-31T07:57:00;99577.69;;;17.73;72.23
53270;BME280;39159;45.634;9.420;2022-10-31T07:59:26;99581.16;;;17.70;71.77
53270;BME280;39159;45.634;9.420;2022-10-31T08:01:52;99574.88;;;17.82;71.98
53270;BME280;39159;45.634;9.420;2022-10-31T08:04:18;99573.84;;;17.87;71.95
53270;BME280;39159;45.634;9.420;2022-10-31T08:06:43;99579.66;;;18.06;70.79
53270;BME280;39159;45.634;9.420;2022-10-31T08:09:09;99565.03;;;18.18;69.18
53270;BME280;39159;45.634;9.420;2022-10-31T08:11:34;99571.75;;;18.41;69.10
53270;BME280;39159;45.634;9.420;2022-10-31T08:14:00;99579.94;;;18.50;69.35
53270;BME280;39159;45.634;9.420;2022-10-31T08:16:26;99579.81;;;18.47;68.46
53270;BME280;39159;45.634;9.420;2022-10-31T08:18:51;99577.16;;;18.50;69.31
53270;BME280;39159;45.634;9.420;2022-10-31T08:21:18;99580.50;;;18.68;69.98
53270;BME280;39159;45.634;9.420;2022-10-31T08:23:44;99577.72;;;18.80;68.27
53270;BME280;39159;45.634;9.420;2022-10-31T08:26:09;99569.31;;;19.01;66.13
53270;BME280;39159;45.634;9.420;2022-10-31T08:28:34;99579.72;;;19.20;67.67
53270;BME280;39159;45.634;9.420;2022-10-31T08:31:00;99574.25;;;19.08;65.73
53270;BME280;39159;45.634;9.420;2022-10-31T08:33:25;99571.53;;;19.24;65.63
53270;BME280;39159;45.634;9.420;2022-10-31T08:35:51;99581.53;;;19.41;66.53
53270;BME280;39159;45.634;9.420;2022-10-31T08:38:16;99573.09;;;19.65;67.77
53270;BME280;39159;45.634;9.420;2022-10-31T08:40:41;99576.38;;;19.83;63.05
53270;BME280;39159;45.634;9.420;2022-10-31T08:43:14;99582.47;;;20.05;65.05
53270;BME280;39159;45.634;9.420;2022-10-31T08:45:41;99584.63;;;20.27;65.03
53270;BME280;39159;45.634;9.420;2022-10-31T08:48:10;99578.38;;;20.46;64.52
53270;BME280;39159;45.634;9.420;2022-10-31T08:50:37;99573.13;;;20.41;61.48
53270;BME280;39159;45.634;9.420;2022-10-31T08:53:05;99581.22;;;20.18;62.01
53270;BME280;39159;45.634;9.420;2022-10-31T08:55:33;99584.00;;;20.18;62.26
53270;BME280;39159;45.634;9.420;2022-10-31T08:57:59;99584.19;;;20.41;60.56
53270;BME280;39159;45.634;9.420;2022-10-31T09:00:24;99591.09;;;20.63;61.93
53270;BME280;39159;45.634;9.420;2022-10-31T09:02:57;99583.13;;;20.62;61.51
53270;BME280;39159;45.634;9.420;2022-10-31T09:05:23;99586.88;;;20.69;61.60
53270;BME280;39159;45.634;9.420;2022-10-31T09:07:48;99586.66;;;20.78;61.54
53270;BME280;39159;45.634;9.420;2022-10-31T09:10:14;99586.22;;;20.92;62.64
53270;BME280;39159;45.634;9.420;2022-10-31T09:12:39;99589.81;;;21.12;62.08
53270;BME280;39159;45.634;9.420;2022-10-31T09:15:05;99584.88;;;21.21;61.19
53270;BME280;39159;45.634;9.420;2022-10-31T09:17:31;99577.47;;;21.29;60.31
53270;BME280;39159;45.634;9.420;2022-10-31T09:19:57;99587.56;;;21.18;54.00
53270;BME280;39159;45.634;9.420;2022-10-31T09:22:22;99584.47;;;21.23;55.12
53270;BME280;39159;45.634;9.420;2022-10-31T09:24:48;99587.94;;;21.36;55.46
53270;BME280;39159;45.634;9.420;2022-10-31T09:27:13;99583.72;;;21.42;53.99
53270;BME280;39159;45.634;9.420;2022-10-31T09:29:38;99587.75;;;21.44;53.89
53270;BME280;39159;45.634;9.420;2022-10-31T09:32:04;99582.69;;;21.30;53.78
53270;BME280;39159;45.634;9.420;2022-10-31T09:34:29;99597.44;;;21.73;54.48
53270;BME280;39159;45.634;9.420;2022-10-31T09:36:55;99586.38;;;21.97;54.28
53270;BME280;39159;45.634;9.420;2022-10-31T09:39:20;99593.84;;;22.15;55.12
53270;BME280;39159;45.634;9.420;2022-10-31T09:42:23;99588.59;;;22.10;54.15
53270;BME280;39159;45.634;9.420;2022-10-31T09:45:18;99591.66;;;22.25;54.92
53270;BME280;39159;45.634;9.420;2022-10-31T09:48:36;99597.63;;;22.50;53.12
53270;BME280;39159;45.634;9.420;2022-10-31T09:50:51;99599.53;;;22.95;53.52
53270;BME280;39159;45.634;9.420;2022-10-31T09:55:55;99597.97;;;23.25;50.67
53270;BME280;39159;45.634;9.420;2022-10-31T09:58:26;99600.31;;;23.53;50.83
53270;BME280;39159;45.634;9.420;2022-10-31T10:00:54;99599.91;;;23.51;50.37
53270;BME280;39159;45.634;9.420;2022-10-31T10:03:28;99598.75;;;23.86;50.10
53270;BME280;39159;45.634;9.420;2022-10-31T10:06:15;99595.84;;;23.78;49.20
53270;BME280;39159;45.634;9.420;2022-10-31T10:08:42;99597.75;;;23.71;48.17
53270;BME280;39159;45.634;9.420;2022-10-31T10:32:47;99581.44;;;24.51;46.83
53270;BME280;39159;45.634;9.420;2022-10-31T10:35:19;99578.31;;;24.60;46.75
53270;BME280;39159;45.634;9.420;2022-10-31T10:37:46;99573.50;;;24.60;47.59
53270;BME280;39159;45.634;9.420;2022-10-31T10:40:20;99574.00;;;24.73;46.88
53270;BME280;39159;45.634;9.420;2022-10-31T10:43:22;99573.25;;;24.80;45.44
53270;BME280;39159;45.634;9.420;2022-10-31T10:46:04;99564.97;;;24.94;44.48
53270;BME280;39159;45.634;9.420;2022-10-31T10:54:49;99572.41;;;25.42;43.43
53270;BME280;39159;45.634;9.420;2022-10-31T10:59:45;99568.22;;;25.03;43.44
53270;BME280;39159;45.634;9.420;2022-10-31T11:02:31;99565.63;;;24.73;43.25
53270;BME280;39159;45.634;9.420;2022-10-31T11:04:58;99562.94;;;24.91;42.96
53270;BME280;39159;45.634;9.420;2022-10-31T11:07:25;99568.09;;;24.82;43.02
53270;BME280;39159;45.634;9.420;2022-10-31T11:09:51;99557.19;;;24.63;43.30
53270;BME280;39159;45.634;9.420;2022-10-31T11:12:26;99561.00;;;24.95;42.19
53270;BME280;39159;45.634;9.420;2022-10-31T11:15:00;99559.97;;;25.25;42.07
53270;BME280;39159;45.634;9.420;2022-10-31T11:17:36;99553.25;;;25.44;41.33
53270;BME280;39159;45.634;9.420;2022-10-31T11:20:24;99550.38;;;25.22;41.07
53270;BME280;39159;45.634;9.420;2022-10-31T11:23:01;99547.75;;;24.81;41.69
53270;BME280;39159;45.634;9.420;2022-10-31T11:25:27;99537.78;;;24.84;40.99
53270;BME280;39159;45.634;9.420;2022-10-31T11:27:59;99541.75;;;24.79;42.29
53270;BME280;39159;45.634;9.420;2022-10-31T11:30:25;99527.53;;;25.10;41.39
53270;BME280;39159;45.634;9.420;2022-10-31T11:32:51;99525.19;;;25.15;41.30
53270;BME280;39159;45.634;9.420;2022-10-31T11:35:18;99523.72;;;25.39;40.65
53270;BME280;39159;45.634;9.420;2022-10-31T11:37:48;99521.28;;;25.31;38.79
53270;BME280;39159;45.634;9.420;2022-10-31T11:40:23;99528.91;;;25.52;38.91
53270;BME280;39159;45.634;9.420;2022-10-31T11:42:51;99520.53;;;25.52;39.12
53270;BME280;39159;45.634;9.420;2022-10-31T11:47:50;99515.84;;;24.82;41.04
53270;BME280;39159;45.634;9.420;2022-10-31T11:50:27;99517.94;;;24.41;41.03
53270;BME280;39159;45.634;9.420;2022-10-31T11:52:54;99524.34;;;24.45;40.65
53270;BME280;39159;45.634;9.420;2022-10-31T11:57:55;99520.59;;;24.19;41.74
53270;BME280;39159;45.634;9.420;2022-10-31T12:00:32;99516.81;;;24.01;41.74
53270;BME280;39159;45.634;9.420;2022-10-31T12:08:38;99514.81;;;23.98;44.39
53270;BME280;39159;45.634;9.420;2022-10-31T12:11:09;99512.81;;;23.98;44.97
53270;BME280;39159;45.634;9.420;2022-10-31T12:22:20;99499.59;;;24.40;44.07
53270;BME280;39159;45.634;9.420;2022-10-31T12:39:52;99483.53;;;24.85;43.10
53270;BME280;39159;45.634;9.420;2022-10-31T12:50:55;99459.50;;;25.68;40.67
53270;BME280;39159;45.634;9.420;2022-10-31T12:53:32;99459.84;;;25.38;41.51
53270;BME280;39159;45.634;9.420;2022-10-31T13:01:50;99444.25;;;25.33;41.75
53270;BME280;39159;45.634;9.420;2022-10-31T13:06:57;99440.28;;;25.38;41.06
53270;BME280;39159;45.634;9.420;2022-10-31T13:09:42;99428.19;;;25.01;41.44
53270;BME280;39159;45.634;9.420;2022-10-31T13:12:12;99427.75;;;24.92;41.90
53270;BME280;39159;45.634;9.420;2022-10-31T13:14:46;99428.13;;;24.87;42.53
53270;BME280;39159;45.634;9.420;2022-10-31T13:17:26;99424.94;;;24.81;41.70
53270;BME280;39159;45.634;9.420;2022-10-31T13:20:00;99425.66;;;24.68;41.86
53270;BME280;39159;45.634;9.420;2022-10-31T13:22:32;99428.00;;;24.58;42.62
53270;BME280;39159;45.634;9.420;2022-10-31T13:27:45;99429.66;;;24.74;42.55
53270;BME280;39159;45.634;9.420;2022-10-31T13:35:43;99425.47;;;25.19;40.89
53270;BME280;39159;45.634;9.420;2022-10-31T13:38:15;99415.91;;;25.31;40.49
53270;BME280;39159;45.634;9.420;2022-10-31T13:46:45;99409.84;;;25.04;40.92
53270;BME280;39159;45.634;9.420;2022-10-31T13:54:41;99404.97;;;24.79;42.17
53270;BME280;39159;45.634;9.420;2022-10-31T13:57:16;99402.97;;;24.80;42.51
53270;BME280;39159;45.634;9.420;2022-10-31T13:59:51;99399.78;;;24.78;41.41
53270;BME280;39159;45.634;9.420;2022-10-31T14:02:24;99397.38;;;24.73;41.99
53270;BME280;39159;45.634;9.420;2022-10-31T14:04:54;99399.34;;;24.69;43.62
53270;BME280;39159;45.634;9.420;2022-10-31T14:07:22;99393.22;;;24.45;41.31
53270;BME280;39159;45.634;9.420;2022-10-31T14:12:52;99396.31;;;24.26;41.90
53270;BME280;39159;45.634;9.420;2022-10-31T14:15:24;99391.47;;;24.15;41.90
53270;BME280;39159;45.634;9.420;2022-10-31T14:22:54;99383.53;;;23.66;42.92
53270;BME280;39159;45.634;9.420;2022-10-31T14:25:36;99383.44;;;23.58;43.19
53270;BME280;39159;45.634;9.420;2022-10-31T14:28:31;99386.91;;;23.41;43.48
53270;BME280;39159;45.634;9.420;2022-10-31T14:30:58;99381.59;;;23.29;44.14
53270;BME280;39159;45.634;9.420;2022-10-31T14:33:29;99380.66;;;23.14;44.73
53270;BME280;39159;45.634;9.420;2022-10-31T14:36:06;99375.38;;;23.05;45.37
53270;BME280;39159;45.634;9.420;2022-10-31T14:41:21;99368.75;;;22.83;45.78
53270;BME280;39159;45.634;9.420;2022-10-31T14:51:39;99364.69;;;22.43;46.33
53270;BME280;39159;45.634;9.420;2022-10-31T14:54:09;99372.16;;;22.35;45.56
53270;BME280;39159;45.634;9.420;2022-10-31T14:56:46;99369.63;;;22.23;45.81
53270;BME280;39159;45.634;9.420;2022-10-31T14:59:18;99373.09;;;22.17;46.95
53270;BME280;39159;45.634;9.420;2022-10-31T15:02:15;99365.81;;;22.08;47.57
53270;BME280;39159;45.634;9.420;2022-10-31T15:04:45;99363.72;;;22.02;48.38
53270;BME280;39159;45.634;9.420;2022-10-31T15:07:15;99364.06;;;21.97;48.29
53270;BME280;39159;45.634;9.420;2022-10-31T15:09:42;99369.88;;;21.88;48.66
53270;BME280;39159;45.634;9.420;2022-10-31T15:12:27;99371.38;;;21.82;48.87
53270;BME280;39159;45.634;9.420;2022-10-31T15:14:53;99366.97;;;21.81;48.78
53270;BME280;39159;45.634;9.420;2022-10-31T15:17:19;99364.59;;;21.79;49.35
53270;BME280;39159;45.634;9.420;2022-10-31T15:19:45;99369.72;;;21.77;49.72
53270;BME280;39159;45.634;9.420;2022-10-31T15:22:16;99364.09;;;21.73;49.60
53270;BME280;39159;45.634;9.420;2022-10-31T15:24:42;99364.78;;;21.67;49.32
53270;BME280;39159;45.634;9.420;2022-10-31T15:27:17;99355.66;;;21.66;49.76
53270;BME280;39159;45.634;9.420;2022-10-31T15:29:53;99356.00;;;21.65;50.88
53270;BME280;39159;45.634;9.420;2022-10-31T15:34:49;99350.69;;;21.52;51.23
53270;BME280;39159;45.634;9.420;2022-10-31T15:37:17;99352.59;;;21.48;51.44
53270;BME280;39159;45.634;9.420;2022-10-31T15:39:44;99352.81;;;21.40;51.45
53270;BME280;39159;45.634;9.420;2022-10-31T15:42:22;99351.88;;;21.32;51.50
53270;BME280;39159;45.634;9.420;2022-10-31T15:44:52;99352.19;;;21.27;52.63
53270;BME280;39159;45.634;9.420;2022-10-31T15:47:21;99348.09;;;21.21;53.30
53270;BME280;39159;45.634;9.420;2022-10-31T15:49:54;99353.91;;;21.12;53.51
53270;BME280;39159;45.634;9.420;2022-10-31T15:54:53;99340.09;;;20.93;54.39
53270;BME280;39159;45.634;9.420;2022-10-31T15:57:21;99347.84;;;20.83;55.36